Portada
METAR-TAF:

METAR-TAF

Aeropuertos :

Aeropuerto Internacional Rey Husein

Aqaba, Jordania

latitud: 29-38N, longitud: 035-01E, altitud: 53 m

Observación

El informe se hizo hace 6 horas y 2 minutos, a las 23:00 UTC
Viento 8 kt del norte
Temperatura 16°C
Humedad 51%
Presión 1015 hPa
Visibilidad 10 km o más
sin nubes por debajo de 1500 m y sin presencia de cumulonimbus.

METAR: OJAQ 082300Z 36008KT CAVOK 16/06 Q1015 NOSIG

Hora: 07:02 (05:02 UTC)

Pronóstico

El informe se hizo hace 6 horas y 12 minutos, a las 22:50 UTC
Pronóstico válido del 09 a las 00 UTC al 10 a las 06 UTC
Viento 6 kt del norte
Visibilidad 10 km o más
sin nubes por debajo de 1500 m y sin presencia de cumulonimbus.
Probabilidad 40%
del 09 a las 10 UTC al 09 a las 18 UTC
Viento 18 kt del norte
Visibilidad: 4000 m
calima

TAF: OJAQ 082250Z 0900/1006 36006KT CAVOK PROB40 0910/0918 01018KT 4000 HZ

Observaciones y pronósticos meteorológicos de más de 4000 aeropuertos (mensajes METAR y TAF).

Los puntos amarillos y rojos representan las estaciones disponibles.

Ponga el ratón en el punto deseado para ver el nombre de la estación.

Haga clic para ver las observaciones y los pronósticos meteorológicos.

Para cambiar el mapa : haga clic en los botones verdes con una cruz de color negro para hacer un zoom, en el botón verde con un guión para alejar o en las flechas verdes para mapas adyacentes.


METAR-TAF: